sensor_id;sensor_type;location;lat;lon;timestamp;pressure;altitude;pressure_sealevel;temperature;humidity
55217;BME280;41086;46.736;15.666;2024-03-07T00:01:17;98530.41;;;5.21;100.00
55217;BME280;41086;46.736;15.666;2024-03-07T00:03:44;98518.47;;;4.95;100.00
55217;BME280;41086;46.736;15.666;2024-03-07T00:06:11;98529.09;;;4.92;100.00
55217;BME280;41086;46.736;15.666;2024-03-07T00:08:38;98530.72;;;4.55;100.00
55217;BME280;41086;46.736;15.666;2024-03-07T00:11:05;98536.72;;;4.59;100.00
55217;BME280;41086;46.736;15.666;2024-03-07T00:13:34;98529.28;;;4.48;100.00
55217;BME280;41086;46.736;15.666;2024-03-07T00:16:02;98529.53;;;4.21;100.00
55217;BME280;41086;46.736;15.666;2024-03-07T00:18:29;98475.91;;;4.08;100.00
55217;BME280;41086;46.736;15.666;2024-03-07T00:20:56;98525.09;;;4.64;100.00
55217;BME280;41086;46.736;15.666;2024-03-07T00:23:22;98529.41;;;4.65;100.00
55217;BME280;41086;46.736;15.666;2024-03-07T00:25:49;98531.66;;;4.54;100.00
55217;BME280;41086;46.736;15.666;2024-03-07T00:28:17;98497.13;;;4.22;100.00
55217;BME280;41086;46.736;15.666;2024-03-07T00:30:45;98520.63;;;4.26;100.00
55217;BME280;41086;46.736;15.666;2024-03-07T00:33:14;98458.47;;;4.07;100.00
55217;BME280;41086;46.736;15.666;2024-03-07T00:35:41;98516.28;;;4.65;100.00
55217;BME280;41086;46.736;15.666;2024-03-07T00:38:11;98519.38;;;4.75;100.00
55217;BME280;41086;46.736;15.666;2024-03-07T00:40:38;98511.16;;;4.62;100.00
55217;BME280;41086;46.736;15.666;2024-03-07T00:43:05;98515.94;;;4.53;100.00
55217;BME280;41086;46.736;15.666;2024-03-07T00:45:33;98518.09;;;4.84;100.00
55217;BME280;41086;46.736;15.666;2024-03-07T00:48:00;98510.13;;;4.85;100.00
55217;BME280;41086;46.736;15.666;2024-03-07T00:50:27;98521.53;;;5.05;100.00
55217;BME280;41086;46.736;15.666;2024-03-07T00:52:54;98509.31;;;5.04;100.00
55217;BME280;41086;46.736;15.666;2024-03-07T00:55:21;98510.09;;;5.06;100.00
55217;BME280;41086;46.736;15.666;2024-03-07T00:57:49;98517.19;;;5.04;100.00
55217;BME280;41086;46.736;15.666;2024-03-07T01:00:16;98520.50;;;4.88;98.03
55217;BME280;41086;46.736;15.666;2024-03-07T01:02:47;98483.53;;;3.92;100.00
55217;BME280;41086;46.736;15.666;2024-03-07T01:05:15;98492.13;;;3.75;100.00
55217;BME280;41086;46.736;15.666;2024-03-07T01:07:44;98514.72;;;3.34;100.00
55217;BME280;41086;46.736;15.666;2024-03-07T01:10:14;98520.69;;;3.38;100.00
55217;BME280;41086;46.736;15.666;2024-03-07T01:12:43;98519.47;;;3.46;100.00
55217;BME280;41086;46.736;15.666;2024-03-07T01:15:11;98511.25;;;3.77;100.00
55217;BME280;41086;46.736;15.666;2024-03-07T01:17:38;98518.44;;;4.15;100.00
55217;BME280;41086;46.736;15.666;2024-03-07T01:20:06;98500.47;;;4.06;100.00
55217;BME280;41086;46.736;15.666;2024-03-07T01:22:33;98530.25;;;4.25;100.00
55217;BME280;41086;46.736;15.666;2024-03-07T01:24:59;98515.59;;;4.21;100.00
55217;BME280;41086;46.736;15.666;2024-03-07T01:27:26;98520.25;;;4.35;100.00
55217;BME280;41086;46.736;15.666;2024-03-07T01:29:53;98495.25;;;4.26;100.00
55217;BME280;41086;46.736;15.666;2024-03-07T01:32:21;98497.13;;;4.22;100.00
55217;BME280;41086;46.736;15.666;2024-03-07T01:34:47;98527.19;;;4.36;100.00
55217;BME280;41086;46.736;15.666;2024-03-07T01:37:14;98519.50;;;4.31;100.00
55217;BME280;41086;46.736;15.666;2024-03-07T01:39:41;98535.38;;;4.49;100.00
55217;BME280;41086;46.736;15.666;2024-03-07T01:42:08;98527.66;;;4.46;100.00
55217;BME280;41086;46.736;15.666;2024-03-07T01:44:34;98484.84;;;3.82;100.00
55217;BME280;41086;46.736;15.666;2024-03-07T01:47:02;98528.81;;;3.75;100.00
55217;BME280;41086;46.736;15.666;2024-03-07T01:49:30;98521.84;;;3.96;100.00
55217;BME280;41086;46.736;15.666;2024-03-07T01:51:58;98522.66;;;4.19;100.00
55217;BME280;41086;46.736;15.666;2024-03-07T01:54:26;98523.63;;;4.16;100.00
55217;BME280;41086;46.736;15.666;2024-03-07T01:56:54;98500.06;;;4.15;100.00
55217;BME280;41086;46.736;15.666;2024-03-07T01:59:22;98506.25;;;4.14;100.00
55217;BME280;41086;46.736;15.666;2024-03-07T02:01:51;98525.41;;;4.16;100.00
55217;BME280;41086;46.736;15.666;2024-03-07T02:04:18;98490.34;;;3.76;100.00
55217;BME280;41086;46.736;15.666;2024-03-07T02:06:45;98521.19;;;3.91;100.00
55217;BME280;41086;46.736;15.666;2024-03-07T02:09:12;98499.78;;;3.36;100.00
55217;BME280;41086;46.736;15.666;2024-03-07T02:11:40;98522.25;;;3.42;100.00
55217;BME280;41086;46.736;15.666;2024-03-07T02:14:07;98501.78;;;3.07;100.00
55217;BME280;41086;46.736;15.666;2024-03-07T02:16:34;98497.91;;;2.94;100.00
55217;BME280;41086;46.736;15.666;2024-03-07T02:19:01;98519.91;;;3.12;100.00
55217;BME280;41086;46.736;15.666;2024-03-07T02:21:28;98511.47;;;3.27;100.00
55217;BME280;41086;46.736;15.666;2024-03-07T02:23:55;98516.47;;;3.55;100.00
55217;BME280;41086;46.736;15.666;2024-03-07T02:26:22;98526.50;;;3.22;100.00
55217;BME280;41086;46.736;15.666;2024-03-07T02:28:49;98521.97;;;2.80;100.00
55217;BME280;41086;46.736;15.666;2024-03-07T02:31:17;98517.56;;;2.57;100.00
55217;BME280;41086;46.736;15.666;2024-03-07T02:33:47;98513.91;;;2.86;100.00
55217;BME280;41086;46.736;15.666;2024-03-07T02:36:14;98511.09;;;2.67;100.00
55217;BME280;41086;46.736;15.666;2024-03-07T02:38:41;98518.47;;;2.56;100.00
55217;BME280;41086;46.736;15.666;2024-03-07T02:41:08;98510.44;;;2.37;100.00
55217;BME280;41086;46.736;15.666;2024-03-07T02:43:34;98498.16;;;2.39;100.00
55217;BME280;41086;46.736;15.666;2024-03-07T02:46:04;98509.59;;;2.60;100.00
55217;BME280;41086;46.736;15.666;2024-03-07T02:48:31;98518.47;;;2.56;100.00
55217;BME280;41086;46.736;15.666;2024-03-07T02:50:58;98517.25;;;2.66;100.00
55217;BME280;41086;46.736;15.666;2024-03-07T02:53:25;98506.97;;;2.85;100.00
55217;BME280;41086;46.736;15.666;2024-03-07T02:55:52;98521.44;;;2.71;100.00
55217;BME280;41086;46.736;15.666;2024-03-07T02:58:19;98503.06;;;2.96;100.00
55217;BME280;41086;46.736;15.666;2024-03-07T03:00:46;98520.09;;;2.84;100.00
55217;BME280;41086;46.736;15.666;2024-03-07T03:03:15;98516.31;;;3.15;100.00
55217;BME280;41086;46.736;15.666;2024-03-07T03:05:42;98511.31;;;2.85;100.00
55217;BME280;41086;46.736;15.666;2024-03-07T03:08:09;98486.47;;;2.97;100.00
55217;BME280;41086;46.736;15.666;2024-03-07T03:10:36;98522.38;;;2.93;100.00
55217;BME280;41086;46.736;15.666;2024-03-07T03:13:03;98490.06;;;2.94;100.00
55217;BME280;41086;46.736;15.666;2024-03-07T03:15:30;98526.78;;;3.15;100.00
55217;BME280;41086;46.736;15.666;2024-03-07T03:17:58;98529.16;;;3.44;100.00
55217;BME280;41086;46.736;15.666;2024-03-07T03:20:28;98520.00;;;3.32;100.00
55217;BME280;41086;46.736;15.666;2024-03-07T03:23:01;98539.09;;;3.36;100.00
55217;BME280;41086;46.736;15.666;2024-03-07T03:25:46;98528.28;;;3.67;100.00
55217;BME280;41086;46.736;15.666;2024-03-07T03:28:15;98530.81;;;3.69;100.00
55217;BME280;41086;46.736;15.666;2024-03-07T03:30:43;98536.16;;;3.88;100.00
55217;BME280;41086;46.736;15.666;2024-03-07T03:33:11;98545.44;;;3.96;100.00
55217;BME280;41086;46.736;15.666;2024-03-07T03:35:38;98534.56;;;4.06;100.00
55217;BME280;41086;46.736;15.666;2024-03-07T03:38:14;98508.47;;;4.03;100.00
55217;BME280;41086;46.736;15.666;2024-03-07T03:40:41;98544.66;;;4.15;100.00
55217;BME280;41086;46.736;15.666;2024-03-07T03:43:07;98542.13;;;4.13;100.00
55217;BME280;41086;46.736;15.666;2024-03-07T03:45:34;98537.25;;;4.04;100.00
55217;BME280;41086;46.736;15.666;2024-03-07T03:48:01;98539.06;;;4.44;100.00
55217;BME280;41086;46.736;15.666;2024-03-07T03:50:29;98528.16;;;3.91;100.00
55217;BME280;41086;46.736;15.666;2024-03-07T03:52:56;98540.53;;;4.09;100.00
55217;BME280;41086;46.736;15.666;2024-03-07T03:55:24;98543.78;;;4.16;100.00
55217;BME280;41086;46.736;15.666;2024-03-07T03:57:51;98540.09;;;4.20;100.00
55217;BME280;41086;46.736;15.666;2024-03-07T04:00:17;98547.59;;;4.70;100.00
55217;BME280;41086;46.736;15.666;2024-03-07T04:02:46;98549.47;;;4.66;100.00
55217;BME280;41086;46.736;15.666;2024-03-07T04:05:19;98541.94;;;4.38;100.00
55217;BME280;41086;46.736;15.666;2024-03-07T04:07:47;98533.69;;;4.27;100.00
55217;BME280;41086;46.736;15.666;2024-03-07T04:10:15;98535.25;;;4.11;100.00
55217;BME280;41086;46.736;15.666;2024-03-07T04:12:44;98532.88;;;3.83;100.00
55217;BME280;41086;46.736;15.666;2024-03-07T04:15:14;98536.13;;;3.67;100.00
55217;BME280;41086;46.736;15.666;2024-03-07T04:17:45;98531.66;;;3.91;100.00
55217;BME280;41086;46.736;15.666;2024-03-07T04:20:13;98537.75;;;3.92;100.00
55217;BME280;41086;46.736;15.666;2024-03-07T04:22:40;98545.41;;;4.39;100.00
55217;BME280;41086;46.736;15.666;2024-03-07T04:25:07;98539.91;;;4.25;100.00
55217;BME280;41086;46.736;15.666;2024-03-07T04:27:36;98545.53;;;4.36;100.00
55217;BME280;41086;46.736;15.666;2024-03-07T04:30:04;98552.38;;;4.60;100.00
55217;BME280;41086;46.736;15.666;2024-03-07T04:32:31;98542.47;;;4.47;100.00
55217;BME280;41086;46.736;15.666;2024-03-07T04:34:58;98544.13;;;4.49;100.00
55217;BME280;41086;46.736;15.666;2024-03-07T04:37:26;98551.63;;;4.98;100.00
55217;BME280;41086;46.736;15.666;2024-03-07T04:39:53;98561.31;;;5.16;100.00
55217;BME280;41086;46.736;15.666;2024-03-07T04:42:20;98534.38;;;4.31;100.00
55217;BME280;41086;46.736;15.666;2024-03-07T04:44:48;98568.22;;;4.37;100.00
55217;BME280;41086;46.736;15.666;2024-03-07T04:47:15;98520.56;;;4.27;100.00
55217;BME280;41086;46.736;15.666;2024-03-07T04:49:43;98567.34;;;4.79;100.00
55217;BME280;41086;46.736;15.666;2024-03-07T04:52:10;98536.19;;;4.51;100.00
55217;BME280;41086;46.736;15.666;2024-03-07T04:54:37;98543.69;;;4.79;100.00
55217;BME280;41086;46.736;15.666;2024-03-07T04:57:04;98569.31;;;5.13;100.00
55217;BME280;41086;46.736;15.666;2024-03-07T04:59:32;98561.47;;;5.32;100.00
55217;BME280;41086;46.736;15.666;2024-03-07T05:01:59;98568.41;;;5.52;100.00
55217;BME280;41086;46.736;15.666;2024-03-07T05:04:26;98560.00;;;5.06;100.00
55217;BME280;41086;46.736;15.666;2024-03-07T05:06:56;98566.25;;;4.83;100.00
55217;BME280;41086;46.736;15.666;2024-03-07T05:09:24;98579.19;;;4.87;100.00
55217;BME280;41086;46.736;15.666;2024-03-07T05:11:53;98567.34;;;4.79;100.00
55217;BME280;41086;46.736;15.666;2024-03-07T05:14:21;98572.31;;;5.62;100.00
55217;BME280;41086;46.736;15.666;2024-03-07T05:16:54;98584.97;;;5.73;100.00
55217;BME280;41086;46.736;15.666;2024-03-07T05:19:35;98591.41;;;5.85;99.83
55217;BME280;41086;46.736;15.666;2024-03-07T05:22:05;98583.09;;;5.75;99.33
55217;BME280;41086;46.736;15.666;2024-03-07T05:24:33;98556.25;;;5.30;100.00
55217;BME280;41086;46.736;15.666;2024-03-07T05:27:01;98588.41;;;5.17;100.00
55217;BME280;41086;46.736;15.666;2024-03-07T05:29:28;98589.94;;;5.02;100.00
55217;BME280;41086;46.736;15.666;2024-03-07T05:31:55;98589.69;;;5.08;100.00
55217;BME280;41086;46.736;15.666;2024-03-07T05:34:21;98593.69;;;5.36;100.00
55217;BME280;41086;46.736;15.666;2024-03-07T05:36:50;98577.53;;;5.05;100.00
55217;BME280;41086;46.736;15.666;2024-03-07T05:39:18;98592.75;;;5.18;100.00
55217;BME280;41086;46.736;15.666;2024-03-07T05:41:45;98579.75;;;5.15;100.00
55217;BME280;41086;46.736;15.666;2024-03-07T05:44:13;98596.47;;;5.32;100.00
55217;BME280;41086;46.736;15.666;2024-03-07T05:46:41;98588.47;;;4.76;100.00
55217;BME280;41086;46.736;15.666;2024-03-07T05:49:13;98582.00;;;4.83;100.00
55217;BME280;41086;46.736;15.666;2024-03-07T05:51:41;98607.38;;;5.23;100.00
55217;BME280;41086;46.736;15.666;2024-03-07T05:54:12;98586.03;;;4.71;100.00
55217;BME280;41086;46.736;15.666;2024-03-07T05:56:40;98598.56;;;5.05;100.00
55217;BME280;41086;46.736;15.666;2024-03-07T05:59:08;98568.31;;;5.16;100.00
55217;BME280;41086;46.736;15.666;2024-03-07T06:01:39;98610.81;;;5.44;100.00
55217;BME280;41086;46.736;15.666;2024-03-07T06:04:06;98600.25;;;5.46;100.00
55217;BME280;41086;46.736;15.666;2024-03-07T06:06:34;98605.13;;;5.53;100.00
55217;BME280;41086;46.736;15.666;2024-03-07T06:09:04;98594.97;;;4.67;100.00
55217;BME280;41086;46.736;15.666;2024-03-07T06:11:38;98603.22;;;4.37;100.00
55217;BME280;41086;46.736;15.666;2024-03-07T06:14:06;98566.66;;;4.94;100.00
55217;BME280;41086;46.736;15.666;2024-03-07T06:16:35;98600.91;;;4.91;100.00
55217;BME280;41086;46.736;15.666;2024-03-07T06:19:05;98594.88;;;5.28;100.00
55217;BME280;41086;46.736;15.666;2024-03-07T06:21:39;98603.56;;;4.71;100.00
55217;BME280;41086;46.736;15.666;2024-03-07T06:24:06;98602.19;;;4.82;100.00
55217;BME280;41086;46.736;15.666;2024-03-07T06:26:36;98606.72;;;5.18;100.00
55217;BME280;41086;46.736;15.666;2024-03-07T06:29:04;98611.88;;;5.21;100.00
55217;BME280;41086;46.736;15.666;2024-03-07T06:31:41;98607.63;;;5.75;100.00
55217;BME280;41086;46.736;15.666;2024-03-07T06:34:09;98578.91;;;5.52;100.00
55217;BME280;41086;46.736;15.666;2024-03-07T06:36:37;98604.06;;;5.76;100.00
55217;BME280;41086;46.736;15.666;2024-03-07T06:39:04;98608.72;;;5.89;100.00
55217;BME280;41086;46.736;15.666;2024-03-07T06:41:33;98604.47;;;6.05;100.00
55217;BME280;41086;46.736;15.666;2024-03-07T06:44:00;98620.88;;;5.91;100.00
55217;BME280;41086;46.736;15.666;2024-03-07T06:46:27;98614.44;;;6.35;100.00
55217;BME280;41086;46.736;15.666;2024-03-07T06:48:55;98624.50;;;6.27;100.00
55217;BME280;41086;46.736;15.666;2024-03-07T06:51:25;98629.78;;;5.70;100.00
55217;BME280;41086;46.736;15.666;2024-03-07T06:53:52;98634.19;;;5.69;100.00
55217;BME280;41086;46.736;15.666;2024-03-07T06:56:19;98636.94;;;6.23;100.00
55217;BME280;41086;46.736;15.666;2024-03-07T06:58:46;98602.97;;;5.43;100.00
55217;BME280;41086;46.736;15.666;2024-03-07T07:01:13;98649.72;;;5.36;100.00
55217;BME280;41086;46.736;15.666;2024-03-07T07:03:43;98632.81;;;5.23;100.00
55217;BME280;41086;46.736;15.666;2024-03-07T07:06:10;98647.28;;;5.52;100.00
55217;BME280;41086;46.736;15.666;2024-03-07T07:08:38;98637.00;;;5.27;100.00
55217;BME280;41086;46.736;15.666;2024-03-07T07:11:05;98647.75;;;5.41;100.00
55217;BME280;41086;46.736;15.666;2024-03-07T07:13:32;98642.34;;;6.03;100.00
55217;BME280;41086;46.736;15.666;2024-03-07T07:15:59;98644.31;;;5.97;100.00
55217;BME280;41086;46.736;15.666;2024-03-07T07:18:26;98640.78;;;6.16;100.00
55217;BME280;41086;46.736;15.666;2024-03-07T07:20:53;98631.50;;;6.09;100.00
55217;BME280;41086;46.736;15.666;2024-03-07T07:23:21;98638.53;;;5.89;100.00
55217;BME280;41086;46.736;15.666;2024-03-07T07:25:48;98636.97;;;5.85;100.00
55217;BME280;41086;46.736;15.666;2024-03-07T07:28:18;98651.06;;;6.03;100.00
55217;BME280;41086;46.736;15.666;2024-03-07T07:30:45;98636.97;;;5.85;100.00
55217;BME280;41086;46.736;15.666;2024-03-07T07:33:12;98633.84;;;6.15;100.00
55217;BME280;41086;46.736;15.666;2024-03-07T07:35:40;98607.97;;;6.06;100.00
55217;BME280;41086;46.736;15.666;2024-03-07T07:38:08;98631.72;;;6.04;100.00
55217;BME280;41086;46.736;15.666;2024-03-07T07:40:37;98636.91;;;6.42;100.00
55217;BME280;41086;46.736;15.666;2024-03-07T07:43:04;98637.72;;;6.79;100.00
55217;BME280;41086;46.736;15.666;2024-03-07T07:45:32;98633.59;;;6.91;100.00
55217;BME280;41086;46.736;15.666;2024-03-07T07:48:03;98633.63;;;7.24;100.00
55217;BME280;41086;46.736;15.666;2024-03-07T07:50:30;98633.63;;;7.24;100.00
55217;BME280;41086;46.736;15.666;2024-03-07T07:52:58;98628.44;;;7.71;100.00
55217;BME280;41086;46.736;15.666;2024-03-07T07:55:28;98624.94;;;7.87;100.00
55217;BME280;41086;46.736;15.666;2024-03-07T07:57:57;98632.34;;;9.04;93.86
55217;BME280;41086;46.736;15.666;2024-03-07T08:00:26;98631.69;;;8.70;97.44
55217;BME280;41086;46.736;15.666;2024-03-07T08:02:57;98640.13;;;8.77;96.20
55217;BME280;41086;46.736;15.666;2024-03-07T08:05:26;98650.63;;;9.23;92.54
55217;BME280;41086;46.736;15.666;2024-03-07T08:07:56;98624.69;;;8.85;93.68
55217;BME280;41086;46.736;15.666;2024-03-07T08:10:25;98651.81;;;8.73;90.99
55217;BME280;41086;46.736;15.666;2024-03-07T08:12:52;98619.66;;;8.50;83.90
55217;BME280;41086;46.736;15.666;2024-03-07T08:15:19;98633.00;;;9.07;81.01
55217;BME280;41086;46.736;15.666;2024-03-07T08:17:48;98636.91;;;9.30;79.71
55217;BME280;41086;46.736;15.666;2024-03-07T08:20:17;98648.34;;;9.88;76.52
55217;BME280;41086;46.736;15.666;2024-03-07T08:22:50;98642.13;;;10.16;76.93
55217;BME280;41086;46.736;15.666;2024-03-07T08:25:22;98639.44;;;10.58;71.93
55217;BME280;41086;46.736;15.666;2024-03-07T08:27:53;98647.09;;;11.02;68.68
55217;BME280;41086;46.736;15.666;2024-03-07T08:30:20;98647.00;;;11.55;66.94
55217;BME280;41086;46.736;15.666;2024-03-07T08:32:50;98648.00;;;12.04;62.21
55217;BME280;41086;46.736;15.666;2024-03-07T08:35:20;98651.34;;;12.18;61.89
55217;BME280;41086;46.736;15.666;2024-03-07T08:37:49;98644.16;;;13.04;58.96
55217;BME280;41086;46.736;15.666;2024-03-07T08:40:21;98647.78;;;12.68;62.53
55217;BME280;41086;46.736;15.666;2024-03-07T08:42:54;98648.78;;;12.89;57.80
55217;BME280;41086;46.736;15.666;2024-03-07T08:45:25;98645.13;;;12.68;61.61
55217;BME280;41086;46.736;15.666;2024-03-07T08:47:54;98651.34;;;12.91;59.94
55217;BME280;41086;46.736;15.666;2024-03-07T08:50:26;98650.50;;;12.90;57.65
55217;BME280;41086;46.736;15.666;2024-03-07T08:52:55;98648.13;;;12.63;56.32
55217;BME280;41086;46.736;15.666;2024-03-07T08:55:24;98641.31;;;12.59;54.87
55217;BME280;41086;46.736;15.666;2024-03-07T08:57:53;98649.56;;;12.67;56.67
55217;BME280;41086;46.736;15.666;2024-03-07T09:00:22;98643.81;;;12.73;56.02
55217;BME280;41086;46.736;15.666;2024-03-07T09:02:58;98649.56;;;13.38;56.57
55217;BME280;41086;46.736;15.666;2024-03-07T09:05:31;98648.97;;;13.68;52.77
55217;BME280;41086;46.736;15.666;2024-03-07T09:08:01;98653.94;;;14.06;53.40
55217;BME280;41086;46.736;15.666;2024-03-07T09:10:30;98648.03;;;13.69;50.75
55217;BME280;41086;46.736;15.666;2024-03-07T09:12:58;98648.63;;;14.06;53.67
55217;BME280;41086;46.736;15.666;2024-03-07T09:15:26;98642.44;;;14.17;50.78
55217;BME280;41086;46.736;15.666;2024-03-07T09:17:55;98638.47;;;13.55;48.47
55217;BME280;41086;46.736;15.666;2024-03-07T09:20:23;98613.84;;;13.96;49.22
55217;BME280;41086;46.736;15.666;2024-03-07T09:22:51;98639.09;;;14.47;48.74
55217;BME280;41086;46.736;15.666;2024-03-07T09:25:23;98630.03;;;14.71;48.43
55217;BME280;41086;46.736;15.666;2024-03-07T09:27:53;98640.50;;;15.16;48.19
55217;BME280;41086;46.736;15.666;2024-03-07T09:30:22;98634.59;;;15.12;45.59
55217;BME280;41086;46.736;15.666;2024-03-07T09:32:56;98634.50;;;15.02;46.85
55217;BME280;41086;46.736;15.666;2024-03-07T09:35:24;98630.41;;;14.98;47.26
55217;BME280;41086;46.736;15.666;2024-03-07T09:37:52;98620.28;;;14.81;46.41
55217;BME280;41086;46.736;15.666;2024-03-07T09:40:21;98626.56;;;14.91;47.22
55217;BME280;41086;46.736;15.666;2024-03-07T09:42:55;98616.91;;;13.69;47.67
55217;BME280;41086;46.736;15.666;2024-03-07T09:45:29;98629.72;;;13.30;49.73
55217;BME280;41086;46.736;15.666;2024-03-07T09:47:57;98605.03;;;13.51;49.70
55217;BME280;41086;46.736;15.666;2024-03-07T09:50:26;98616.97;;;12.41;49.69
55217;BME280;41086;46.736;15.666;2024-03-07T09:52:56;98620.38;;;11.18;54.92
55217;BME280;41086;46.736;15.666;2024-03-07T09:55:25;98604.00;;;10.99;55.62
55217;BME280;41086;46.736;15.666;2024-03-07T09:57:54;98624.38;;;11.49;55.17
55217;BME280;41086;46.736;15.666;2024-03-07T10:00:24;98621.91;;;10.70;59.99
55217;BME280;41086;46.736;15.666;2024-03-07T10:03:08;98611.56;;;11.30;58.69
55217;BME280;41086;46.736;15.666;2024-03-07T10:05:38;98625.84;;;10.90;62.08
55217;BME280;41086;46.736;15.666;2024-03-07T10:08:06;98627.66;;;10.89;59.89
55217;BME280;41086;46.736;15.666;2024-03-07T10:10:37;98617.38;;;11.23;58.36
55217;BME280;41086;46.736;15.666;2024-03-07T10:13:05;98631.81;;;11.31;56.17
55217;BME280;41086;46.736;15.666;2024-03-07T10:15:35;98625.00;;;10.89;56.39
55217;BME280;41086;46.736;15.666;2024-03-07T10:18:07;98618.47;;;11.33;55.02
55217;BME280;41086;46.736;15.666;2024-03-07T10:20:36;98622.63;;;12.00;53.61
55217;BME280;41086;46.736;15.666;2024-03-07T10:23:04;98620.53;;;12.99;50.62
55217;BME280;41086;46.736;15.666;2024-03-07T10:25:31;98630.81;;;12.57;49.52
55217;BME280;41086;46.736;15.666;2024-03-07T10:28:00;98617.00;;;12.88;50.58
55217;BME280;41086;46.736;15.666;2024-03-07T10:30:39;98620.31;;;12.67;49.08
55217;BME280;41086;46.736;15.666;2024-03-07T10:33:07;98615.31;;;12.51;49.63
55217;BME280;41086;46.736;15.666;2024-03-07T10:35:36;98620.53;;;12.64;50.65
55217;BME280;41086;46.736;15.666;2024-03-07T10:38:04;98623.19;;;12.99;51.11
55217;BME280;41086;46.736;15.666;2024-03-07T10:40:41;98621.88;;;13.63;48.56
55217;BME280;41086;46.736;15.666;2024-03-07T10:43:11;98622.53;;;13.20;49.08
55217;BME280;41086;46.736;15.666;2024-03-07T10:45:45;98631.06;;;13.59;49.38
55217;BME280;41086;46.736;15.666;2024-03-07T10:48:20;98634.81;;;13.45;47.08
55217;BME280;41086;46.736;15.666;2024-03-07T10:51:16;98621.75;;;13.64;47.54
55217;BME280;41086;46.736;15.666;2024-03-07T10:53:54;98618.72;;;13.91;45.38
55217;BME280;41086;46.736;15.666;2024-03-07T10:56:51;98606.91;;;14.28;45.89
55217;BME280;41086;46.736;15.666;2024-03-07T10:59:25;98610.16;;;15.17;45.02
55217;BME280;41086;46.736;15.666;2024-03-07T11:02:17;98603.03;;;16.29;43.71
55217;BME280;41086;46.736;15.666;2024-03-07T11:04:47;98614.31;;;16.52;43.42
55217;BME280;41086;46.736;15.666;2024-03-07T11:07:18;98595.25;;;16.06;43.35
55217;BME280;41086;46.736;15.666;2024-03-07T11:09:49;98582.88;;;14.92;42.46
55217;BME280;41086;46.736;15.666;2024-03-07T11:12:21;98608.63;;;14.61;43.99
55217;BME280;41086;46.736;15.666;2024-03-07T11:14:50;98609.00;;;14.02;46.35
55217;BME280;41086;46.736;15.666;2024-03-07T11:17:21;98610.38;;;13.51;47.60
55217;BME280;41086;46.736;15.666;2024-03-07T11:19:49;98617.50;;;13.39;49.35
55217;BME280;41086;46.736;15.666;2024-03-07T11:22:30;98606.13;;;13.26;48.85
55217;BME280;41086;46.736;15.666;2024-03-07T11:25:04;98609.09;;;13.21;50.18
55217;BME280;41086;46.736;15.666;2024-03-07T11:27:38;98588.63;;;12.99;50.40
55217;BME280;41086;46.736;15.666;2024-03-07T11:30:10;98605.22;;;13.03;51.09
55217;BME280;41086;46.736;15.666;2024-03-07T11:32:38;98604.59;;;12.99;51.16
55217;BME280;41086;46.736;15.666;2024-03-07T11:35:12;98596.34;;;12.91;50.11
55217;BME280;41086;46.736;15.666;2024-03-07T11:37:43;98600.22;;;12.87;50.06
55217;BME280;41086;46.736;15.666;2024-03-07T11:43:02;98587.50;;;12.79;47.52
55217;BME280;41086;46.736;15.666;2024-03-07T11:45:33;98587.97;;;12.73;47.92
55217;BME280;41086;46.736;15.666;2024-03-07T11:48:06;98592.47;;;12.49;47.70
55217;BME280;41086;46.736;15.666;2024-03-07T11:50:40;98574.66;;;12.38;47.57
55217;BME280;41086;46.736;15.666;2024-03-07T11:53:09;98580.16;;;12.59;47.55
55217;BME280;41086;46.736;15.666;2024-03-07T11:55:40;98588.47;;;13.47;46.99
55217;BME280;41086;46.736;15.666;2024-03-07T11:58:18;98587.50;;;12.91;47.35
55217;BME280;41086;46.736;15.666;2024-03-07T12:00:49;98587.72;;;12.76;47.04
55217;BME280;41086;46.736;15.666;2024-03-07T12:03:19;98574.72;;;12.96;47.94
55217;BME280;41086;46.736;15.666;2024-03-07T12:05:50;98578.47;;;12.58;46.71
55217;BME280;41086;46.736;15.666;2024-03-07T12:08:18;98583.06;;;12.56;46.76
55217;BME280;41086;46.736;15.666;2024-03-07T12:10:49;98574.34;;;12.54;47.33
55217;BME280;41086;46.736;15.666;2024-03-07T12:13:20;98570.56;;;12.45;47.66
55217;BME280;41086;46.736;15.666;2024-03-07T12:15:47;98572.63;;;12.41;46.99
55217;BME280;41086;46.736;15.666;2024-03-07T12:25:38;98558.91;;;12.35;45.76
55217;BME280;41086;46.736;15.666;2024-03-07T12:28:11;98550.81;;;12.60;46.43
55217;BME280;41086;46.736;15.666;2024-03-07T12:30:52;98561.66;;;12.93;45.38
55217;BME280;41086;46.736;15.666;2024-03-07T12:33:21;98549.31;;;12.92;45.56
55217;BME280;41086;46.736;15.666;2024-03-07T12:35:53;98562.16;;;13.09;47.30
55217;BME280;41086;46.736;15.666;2024-03-07T12:38:28;98553.69;;;12.46;46.50
55217;BME280;41086;46.736;15.666;2024-03-07T12:41:07;98554.78;;;13.01;47.20
55217;BME280;41086;46.736;15.666;2024-03-07T12:43:35;98561.34;;;13.20;46.09
55217;BME280;41086;46.736;15.666;2024-03-07T12:46:13;98554.81;;;13.69;44.42
55217;BME280;41086;46.736;15.666;2024-03-07T12:48:50;98559.38;;;13.89;43.12
55217;BME280;41086;46.736;15.666;2024-03-07T12:51:23;98542.44;;;13.90;42.37
55217;BME280;41086;46.736;15.666;2024-03-07T12:54:07;98556.88;;;14.20;43.65
55217;BME280;41086;46.736;15.666;2024-03-07T12:56:44;98547.50;;;13.93;44.60
55217;BME280;41086;46.736;15.666;2024-03-07T12:59:18;98539.81;;;14.55;40.90
55217;BME280;41086;46.736;15.666;2024-03-07T13:01:48;98540.91;;;14.41;39.44
55217;BME280;41086;46.736;15.666;2024-03-07T13:04:17;98539.56;;;14.58;40.57
55217;BME280;41086;46.736;15.666;2024-03-07T13:06:47;98548.72;;;14.86;39.42
55217;BME280;41086;46.736;15.666;2024-03-07T13:09:15;98546.88;;;15.07;40.52
55217;BME280;41086;46.736;15.666;2024-03-07T13:11:47;98544.03;;;15.30;38.16